Time;durP1;ratioP1;P1;durP2;ratioP2;P2;SDS_P1;SDS_P2;PMS_P1;PMS_P2;Temp;Humidity;BMP_temperature;BMP_pressure;BME280_temperature;BME280_humidity;BME280_pressure;Samples;Min_cycle;Max_cycle;Signal;HPM_P1;HPM_P2
2024/01/30 00:09:28;;;;;;;35.2;18.8;;;;;;;-2.12;89.38;100513.33333333;;;;
2024/01/30 00:20:28;;;;;;;35.2;18.8;;;;;;;-2.17;89.12;100511.66666667;;;;
2024/01/30 00:30:28;;;;;;;35.2;18.8;;;;;;;-2.26;88.82;100520;;;;
2024/01/30 00:40:28;;;;;;;28.5;16.9;;;;;;;-2.29;89.25;100513.33333333;;;;
2024/01/30 00:51:29;;;;;;;28.5;16.9;;;;;;;-2.22;89.75;100515;;;;
2024/01/30 01:02:28;;;;;;;28.5;16.9;;;;;;;-2.19;89.69;100513.33333333;;;;
2024/01/30 01:12:28;;;;;;;33.6;20.9;;;;;;;-2.38;89.59;100508.33333333;;;;
2024/01/30 01:23:28;;;;;;;33.6;20.9;;;;;;;-2.29;90.29;100503.33333333;;;;
2024/01/30 01:33:29;;;;;;;33.6;20.9;;;;;;;-2.26;89.98;100493.33333333;;;;
2024/01/30 01:44:28;;;;;;;29.7;20.3;;;;;;;-2.34;89.42;100481.66666667;;;;
2024/01/30 01:54:28;;;;;;;29.7;20.3;;;;;;;-2.28;89.88;100483.33333333;;;;
2024/01/30 02:05:28;;;;;;;31.6;19.4;;;;;;;-2.33;89.65;100478.33333333;;;;
2024/01/30 02:16:28;;;;;;;31.6;19.4;;;;;;;-2.41;89.26;100471.66666667;;;;
2024/01/30 02:26:28;;;;;;;31.6;19.4;;;;;;;-2.51;89.11;100476.66666667;;;;
2024/01/30 02:37:28;;;;;;;36.3;18.9;;;;;;;-2.7;88.92;100461.66666667;;;;
2024/01/30 02:48:28;;;;;;;36.3;18.9;;;;;;;-2.77;88.75;100455;;;;
2024/01/30 02:58:28;;;;;;;36.3;18.9;;;;;;;-2.89;88.48;100440;;;;
2024/01/30 03:09:28;;;;;;;25.4;19.4;;;;;;;-2.97;88.82;100441.66666667;;;;
2024/01/30 03:19:28;;;;;;;25.4;19.4;;;;;;;-2.98;88.71;100438.33333333;;;;
2024/01/30 03:29:28;;;;;;;25.4;19.4;;;;;;;-3.08;88.42;100441.66666667;;;;
2024/01/30 03:39:28;;;;;;;30.6;19.6;;;;;;;-3.15;88.43;100446.66666667;;;;
2024/01/30 03:50:28;;;;;;;30.6;19.6;;;;;;;-3.28;88.31;100448.33333333;;;;
2024/01/30 04:00:28;;;;;;;30.6;19.6;;;;;;;-3.32;88.94;100443.33333333;;;;
2024/01/30 04:10:28;;;;;;;33.5;19.7;;;;;;;-3.33;88.84;100441.66666667;;;;
2024/01/30 04:21:28;;;;;;;33.5;19.7;;;;;;;-3.28;89.79;100446.66666667;;;;
2024/01/30 04:32:28;;;;;;;33.5;19.7;;;;;;;-3.33;89.55;100445;;;;
2024/01/30 04:42:28;;;;;;;31.7;17.4;;;;;;;-3.28;89.86;100453.33333333;;;;
2024/01/30 04:53:28;;;;;;;31.7;17.4;;;;;;;-3.33;89.56;100446.66666667;;;;
2024/01/30 05:04:28;;;;;;;27.4;15.7;;;;;;;-3.37;89.15;100453.33333333;;;;
2024/01/30 05:15:28;;;;;;;27.4;15.7;;;;;;;-3.48;88.62;100458.33333333;;;;
2024/01/30 05:25:28;;;;;;;27.4;15.7;;;;;;;-3.52;89.51;100455;;;;
2024/01/30 05:36:28;;;;;;;28.6;16.5;;;;;;;-3.52;89.21;100450;;;;
2024/01/30 05:46:28;;;;;;;28.6;16.5;;;;;;;-3.6;88.76;100450;;;;
2024/01/30 05:57:28;;;;;;;28.6;16.5;;;;;;;-3.65;88.55;100460;;;;
2024/01/30 06:07:28;;;;;;;34.7;20.3;;;;;;;-3.79;88.26;100461.66666667;;;;
2024/01/30 06:17:28;;;;;;;34.7;20.3;;;;;;;-3.77;88.85;100451.66666667;;;;
2024/01/30 06:27:28;;;;;;;34.7;20.3;;;;;;;-3.77;88.65;100453.33333333;;;;
2024/01/30 06:38:28;;;;;;;35.8;22.7;;;;;;;-3.78;88.5;100456.66666667;;;;
2024/01/30 06:48:28;;;;;;;35.8;22.7;;;;;;;-3.75;88.57;100451.66666667;;;;
2024/01/30 06:59:28;;;;;;;35.8;22.7;;;;;;;-3.56;88.77;100460;;;;
2024/01/30 07:09:29;;;;;;;27;17.9;;;;;;;-3.47;88.26;100463.33333333;;;;
2024/01/30 07:19:28;;;;;;;27;17.9;;;;;;;-3.29;88.59;100461.66666667;;;;
2024/01/30 07:30:28;;;;;;;27;17.9;;;;;;;-3.11;88.77;100458.33333333;;;;
2024/01/30 07:40:28;;;;;;;34.4;20.6;;;;;;;-2.78;88.95;100466.66666667;;;;
2024/01/30 07:50:28;;;;;;;34.4;20.6;;;;;;;-2.43;89.11;100463.33333333;;;;
2024/01/30 08:01:28;;;;;;;34.4;20.6;;;;;;;-1.98;89.26;100453.33333333;;;;
2024/01/30 08:12:28;;;;;;;38.6;23.6;;;;;;;-1.48;89.3;100458.33333333;;;;
2024/01/30 08:22:28;;;;;;;38.6;23.6;;;;;;;-1.04;89.28;100460;;;;
2024/01/30 08:33:28;;;;;;;46.9;28.5;;;;;;;-0.53;89.24;100461.66666667;;;;
2024/01/30 08:43:28;;;;;;;46.9;28.5;;;;;;;-0.02;88.68;100461.66666667;;;;
2024/01/30 08:53:28;;;;;;;46.9;28.5;;;;;;;0.43;88.43;100461.66666667;;;;
2024/01/30 09:04:28;;;;;;;33.6;21.3;;;;;;;0.89;87.99;100461.66666667;;;;
2024/01/30 09:15:28;;;;;;;33.6;21.3;;;;;;;1.41;87.36;100461.66666667;;;;
2024/01/30 09:25:28;;;;;;;33.6;21.3;;;;;;;1.75;85.21;100460;;;;
2024/01/30 09:36:28;;;;;;;27.5;17.7;;;;;;;2.2;84.73;100441.66666667;;;;
2024/01/30 09:47:28;;;;;;;27.5;17.7;;;;;;;2.74;82.7;100435;;;;
2024/01/30 09:58:28;;;;;;;27.5;17.7;;;;;;;3.15;81.44;100423.33333333;;;;
2024/01/30 10:09:28;;;;;;;39.4;23.8;;;;;;;3.6;80.97;100415;;;;
2024/01/30 10:20:28;;;;;;;39.4;23.8;;;;;;;4.04;78.44;100400;;;;
2024/01/30 10:31:28;;;;;;;39.4;23.8;;;;;;;4.34;76.18;100392;;;;
2024/01/30 10:41:28;;;;;;;37.2;23.6;;;;;;;4.66;75.96;100380;;;;
2024/01/30 10:52:29;;;;;;;37.2;23.6;;;;;;;5.03;72.39;100368;;;;
2024/01/30 11:03:28;;;;;;;25;14.8;;;;;;;5.53;71.07;100360;;;;
2024/01/30 11:13:28;;;;;;;25;14.8;;;;;;;5.84;68.65;100338;;;;
2024/01/30 11:24:28;;;;;;;25;14.8;;;;;;;6.09;67.99;100334;;;;
2024/01/30 11:34:28;;;;;;;26.2;17.2;;;;;;;6.52;67.28;100316;;;;
2024/01/30 11:44:28;;;;;;;26.2;17.2;;;;;;;6.67;63.37;100318;;;;
2024/01/30 11:55:28;;;;;;;26.2;17.2;;;;;;;6.85;65.83;100308;;;;
2024/01/30 12:05:28;;;;;;;44.5;30.3;;;;;;;7.08;65.64;100304;;;;
2024/01/30 12:15:28;;;;;;;44.5;30.3;;;;;;;7.33;64.47;100302;;;;
2024/01/30 12:25:28;;;;;;;44.5;30.3;;;;;;;7.54;62.94;100288;;;;
2024/01/30 12:35:28;;;;;;;43.9;34.1;;;;;;;7.62;62.07;100280;;;;
2024/01/30 12:45:28;;;;;;;43.9;34.1;;;;;;;7.74;61.54;100276;;;;
2024/01/30 12:56:28;;;;;;;43.9;34.1;;;;;;;7.81;60.09;100274;;;;
2024/01/30 13:07:28;;;;;;;48.8;36.5;;;;;;;7.87;59.16;100270;;;;
2024/01/30 13:17:28;;;;;;;48.8;36.5;;;;;;;7.89;59.67;100262;;;;
2024/01/30 13:27:28;;;;;;;48.8;36.5;;;;;;;7.96;59.97;100254;;;;
2024/01/30 13:38:28;;;;;;;42.1;31.9;;;;;;;7.94;59.63;100254;;;;
2024/01/30 13:49:28;;;;;;;42.1;31.9;;;;;;;7.92;60.64;100252;;;;
2024/01/30 13:59:28;;;;;;;42.1;31.9;;;;;;;7.82;61.59;100250;;;;
2024/01/30 14:09:29;;;;;;;49.7;36.4;;;;;;;7.68;61.27;100242;;;;
2024/01/30 14:20:28;;;;;;;49.7;36.4;;;;;;;7.5;62.65;100240;;;;
2024/01/30 14:30:28;;;;;;;49.7;36.4;;;;;;;7.04;64.61;100236;;;;
2024/01/30 14:40:28;;;;;;;55;39.2;;;;;;;6.66;65.72;100232;;;;
2024/01/30 14:51:29;;;;;;;55;39.2;;;;;;;6.1;66.78;100228;;;;
2024/01/30 15:01:28;;;;;;;55;39.2;;;;;;;5.59;68.3;100232;;;;
2024/01/30 15:11:28;;;;;;;37.1;26.5;;;;;;;5.06;69.24;100220;;;;
2024/01/30 15:22:30;;;;;;;37.1;26.5;;;;;;;4.52;70.45;100226;;;;
2024/01/30 15:32:28;;;;;;;38.9;22.3;;;;;;;4.02;71.59;100228;;;;
2024/01/30 15:42:28;;;;;;;38.9;22.3;;;;;;;3.66;72.9;100222;;;;
2024/01/30 15:52:28;;;;;;;38.9;22.3;;;;;;;3.29;74.2;100222;;;;
2024/01/30 16:03:28;;;;;;;47.3;25.7;;;;;;;2.97;74.9;100208;;;;
2024/01/30 16:13:28;;;;;;;47.3;25.7;;;;;;;2.7;75.62;100206;;;;
2024/01/30 16:23:28;;;;;;;47.3;25.7;;;;;;;2.5;76.6;100192;;;;
2024/01/30 16:34:28;;;;;;;42.3;23.8;;;;;;;2.43;77.48;100208.33333333;;;;
2024/01/30 16:44:28;;;;;;;42.3;23.8;;;;;;;2.28;77.17;100208.33333333;;;;
2024/01/30 16:54:28;;;;;;;42.3;23.8;;;;;;;2.15;76.29;100208.33333333;;;;
2024/01/30 17:04:28;;;;;;;47.7;28.9;;;;;;;1.87;75.74;100208.33333333;;;;
2024/01/30 17:14:28;;;;;;;47.7;28.9;;;;;;;1.61;75.85;100210;;;;
2024/01/30 17:24:28;;;;;;;47.7;28.9;;;;;;;1.38;76.02;100196.66666667;;;;
2024/01/30 17:34:28;;;;;;;43.4;23.7;;;;;;;1.17;76.25;100193.33333333;;;;
2024/01/30 17:44:28;;;;;;;43.4;23.7;;;;;;;0.89;76.72;100196.66666667;;;;
2024/01/30 17:54:29;;;;;;;43.4;23.7;;;;;;;0.8;77.63;100190;;;;
2024/01/30 18:05:28;;;;;;;33;19.2;;;;;;;0.88;78.81;100190;;;;
2024/01/30 18:16:28;;;;;;;33;19.2;;;;;;;1.6;77.17;100190;;;;
2024/01/30 18:27:28;;;;;;;33;19.2;;;;;;;1.9;75.81;100186.66666667;;;;
2024/01/30 18:37:28;;;;;;;28.7;17.6;;;;;;;1.7;75.17;100200;;;;
2024/01/30 18:47:28;;;;;;;28.7;17.6;;;;;;;1.19;76.51;100195;;;;
2024/01/30 18:58:28;;;;;;;28.7;17.6;;;;;;;0.79;77.1;100185;;;;
2024/01/30 19:09:28;;;;;;;45.5;25.2;;;;;;;0.71;77.29;100183.33333333;;;;
2024/01/30 19:19:28;;;;;;;45.5;25.2;;;;;;;0.76;76.78;100180;;;;
2024/01/30 19:30:28;;;;;;;45.5;25.2;;;;;;;0.32;77.7;100186;;;;
2024/01/30 19:40:28;;;;;;;57.6;29.4;;;;;;;-0.14;80.42;100188;;;;
2024/01/30 19:50:28;;;;;;;57.6;29.4;;;;;;;-0.23;79.95;100200;;;;
2024/01/30 20:01:28;;;;;;;57.6;29.4;;;;;;;-0.39;79.12;100203.33333333;;;;
2024/01/30 20:12:28;;;;;;;29.7;18.7;;;;;;;-0.68;79.93;100208.33333333;;;;
2024/01/30 20:22:28;;;;;;;29.7;18.7;;;;;;;-0.86;80.87;100206.66666667;;;;
2024/01/30 20:33:29;;;;;;;46.1;26.5;;;;;;;-1.08;81.18;100205;;;;
2024/01/30 20:44:29;;;;;;;46.1;26.5;;;;;;;-1.23;81.53;100205;;;;
2024/01/30 20:54:28;;;;;;;46.1;26.5;;;;;;;-1.25;82.19;100201.66666667;;;;
2024/01/30 21:04:28;;;;;;;26;16;;;;;;;-1.24;81.67;100201.66666667;;;;
2024/01/30 21:15:28;;;;;;;26;16;;;;;;;-1.03;81.98;100193.33333333;;;;
2024/01/30 21:25:28;;;;;;;26;16;;;;;;;-0.81;81.97;100168;;;;
2024/01/30 21:35:28;;;;;;;35.7;18.1;;;;;;;-0.43;82.08;100168;;;;
2024/01/30 21:45:28;;;;;;;35.7;18.1;;;;;;;-0.39;80.86;100164;;;;
2024/01/30 21:56:28;;;;;;;35.7;18.1;;;;;;;-0.37;80.84;100164;;;;
2024/01/30 22:06:29;;;;;;;26.8;15;;;;;;;-0.46;80.34;100178;;;;
2024/01/30 22:17:28;;;;;;;26.8;15;;;;;;;-0.47;80.56;100174;;;;
2024/01/30 22:27:28;;;;;;;26.8;15;;;;;;;-0.48;80.4;100170;;;;
2024/01/30 22:38:29;;;;;;;23.7;13.4;;;;;;;-0.49;80.28;100172;;;;
2024/01/30 22:48:28;;;;;;;23.7;13.4;;;;;;;-0.61;80.25;100186;;;;
2024/01/30 22:59:28;;;;;;;23.7;13.4;;;;;;;-0.69;80.33;100188;;;;
2024/01/30 23:09:29;;;;;;;25.9;13.4;;;;;;;-0.81;80.18;100188;;;;
2024/01/30 23:19:29;;;;;;;25.9;13.4;;;;;;;-0.95;80.3;100186;;;;
2024/01/30 23:30:28;;;;;;;25.9;13.4;;;;;;;-0.98;80.76;100180;;;;
2024/01/30 23:40:29;;;;;;;23.9;12;;;;;;;-1.12;80.49;100170;;;;
2024/01/30 23:51:29;;;;;;;23.9;12;;;;;;;-1.29;81.14;100186;;;;
